Time;durP1;ratioP1;P1;durP2;ratioP2;P2;SDS_P1;SDS_P2;PMS_P1;PMS_P2;Temp;Humidity;BMP_temperature;BMP_pressure;BME280_temperature;BME280_humidity;BME280_pressure;Samples;Min_cycle;Max_cycle;Signal;HPM_P1;HPM_P2
2022/04/07 00:02:18;;;;;;;10.68;5.60;;;;;;;10.86;58.87;99117.34;5079097;28;20056;-78
2022/04/07 00:04:43;;;;;;;8.65;5.30;;;;;;;10.82;58.21;99094.88;5078090;28;20020;-76
2022/04/07 00:07:09;;;;;;;8.68;5.32;;;;;;;10.91;57.92;99100.94;5078776;28;20050;-73
2022/04/07 00:09:34;;;;;;;8.65;5.40;;;;;;;10.85;58.68;99111.25;5077773;28;20032;-73
2022/04/07 00:12:00;;;;;;;8.60;5.53;;;;;;;10.85;58.39;99111.25;5078579;28;20037;-73
2022/04/07 00:14:25;;;;;;;10.43;5.65;;;;;;;10.80;58.30;99099.53;5077352;28;20040;-73
2022/04/07 00:16:51;;;;;;;8.80;5.05;;;;;;;10.69;58.68;99079.59;5077730;28;20095;-73
2022/04/07 00:19:16;;;;;;;9.23;5.50;;;;;;;10.63;58.95;99082.16;5078999;28;20016;-73
2022/04/07 00:21:46;;;;;;;12.90;5.85;;;;;;;10.73;58.95;99083.53;5077832;28;20371;-73
2022/04/07 00:24:12;;;;;;;13.43;5.55;;;;;;;10.62;58.37;99076.03;5078020;28;20045;-73
2022/04/07 00:26:38;;;;;;;9.50;5.63;;;;;;;10.73;58.27;99083.53;5078927;28;20024;-73
2022/04/07 00:29:03;;;;;;;10.30;5.93;;;;;;;10.91;57.02;99090.34;5078626;28;20024;-74
2022/04/07 00:31:38;;;;;;;8.07;5.20;;;;;;;10.80;57.49;99095.06;5075719;28;20099;-72
2022/04/07 00:34:04;;;;;;;8.93;5.68;;;;;;;10.66;57.99;99092.38;5077626;28;20353;-72
2022/04/07 00:36:29;;;;;;;26.10;6.13;;;;;;;10.72;58.19;99105.72;5078288;28;20020;-75
2022/04/07 00:38:55;;;;;;;9.07;5.97;;;;;;;10.81;57.95;99115.25;5078381;28;20088;-78
2022/04/07 00:41:20;;;;;;;9.40;5.80;;;;;;;10.87;57.82;99109.22;5077653;28;20320;-72
2022/04/07 00:43:51;;;;;;;10.55;5.55;;;;;;;11.13;56.99;99108.81;5078774;28;20041;-75
2022/04/07 00:46:16;;;;;;;10.05;5.95;;;;;;;11.05;57.09;99095.66;5077969;28;20067;-73
2022/04/07 00:48:42;;;;;;;8.57;5.63;;;;;;;10.94;56.93;99092.63;5077568;28;20133;-75
2022/04/07 00:51:07;;;;;;;8.93;5.80;;;;;;;11.03;56.46;99087.06;5078271;28;20032;-73
2022/04/07 00:53:33;;;;;;;11.45;6.45;;;;;;;10.90;57.67;99080.75;5077579;28;20314;-76
2022/04/07 00:56:01;;;;;;;12.85;6.53;;;;;;;10.77;58.16;99065.47;5077646;28;20033;-73
2022/04/07 00:58:29;;;;;;;10.80;6.15;;;;;;;10.48;59.37;99071.50;5077563;28;20355;-74
2022/04/07 01:00:56;;;;;;;11.23;7.13;;;;;;;10.09;60.76;99068.91;5077284;28;20364;-75
2022/04/07 01:03:21;;;;;;;12.27;7.07;;;;;;;9.85;61.39;99054.03;5077387;28;20236;-72
2022/04/07 01:05:47;;;;;;;13.30;6.82;;;;;;;9.88;61.64;99051.84;5078557;28;20024;-73
2022/04/07 01:08:12;;;;;;;14.85;6.72;;;;;;;9.85;61.64;99057.50;5077417;28;20033;-74
2022/04/07 01:10:39;;;;;;;12.38;6.28;;;;;;;10.03;61.13;99051.09;5077545;28;20027;-75
2022/04/07 01:13:05;;;;;;;13.90;6.45;;;;;;;10.07;60.78;99066.44;5077964;28;20107;-73
2022/04/07 01:15:30;;;;;;;11.90;5.78;;;;;;;10.05;60.80;99060.50;5077394;28;20028;-77
2022/04/07 01:17:58;;;;;;;12.00;6.80;;;;;;;9.92;60.77;99061.09;5078453;28;20036;-78
2022/04/07 01:20:24;;;;;;;11.43;6.50;;;;;;;10.18;59.81;99052.81;5078182;28;20043;-72
2022/04/07 01:22:51;;;;;;;12.27;6.43;;;;;;;10.17;59.64;99053.81;5078700;28;20318;-75
2022/04/07 01:25:17;;;;;;;14.35;6.82;;;;;;;10.37;59.04;99058.66;5081564;28;20035;-75
2022/04/07 01:27:48;;;;;;;9.77;6.72;;;;;;;10.42;58.85;99057.16;5080698;28;20394;-73
2022/04/07 01:30:15;;;;;;;14.57;6.75;;;;;;;10.57;59.43;99064.31;5079004;28;20260;-73
2022/04/07 01:32:53;;;;;;;10.00;6.57;;;;;;;10.78;58.08;99070.59;5081582;28;20104;-76
2022/04/07 01:35:21;;;;;;;16.38;6.57;;;;;;;11.06;57.54;99062.03;5082210;28;20349;-73
2022/04/07 01:37:48;;;;;;;13.75;6.78;;;;;;;11.23;56.25;99052.09;5080425;28;20052;-75
2022/04/07 01:40:17;;;;;;;11.80;6.55;;;;;;;11.22;56.31;99053.91;5080221;28;20036;-75
2022/04/07 01:42:45;;;;;;;12.43;7.10;;;;;;;11.05;56.34;99050.63;5081325;28;20099;-73
2022/04/07 01:45:11;;;;;;;16.65;7.53;;;;;;;11.17;56.62;99041.22;5080242;28;20074;-74
2022/04/07 01:47:39;;;;;;;14.63;7.75;;;;;;;11.13;56.64;99025.84;5080423;28;20037;-73
2022/04/07 01:50:10;;;;;;;12.85;8.23;;;;;;;11.35;56.13;99034.72;5081227;28;20098;-74
2022/04/07 01:52:39;;;;;;;12.20;7.63;;;;;;;11.26;56.13;99028.69;5080181;28;20032;-75
2022/04/07 01:55:05;;;;;;;13.27;7.25;;;;;;;11.03;56.14;99007.59;5078363;28;20024;-72
2022/04/07 01:57:31;;;;;;;13.02;7.35;;;;;;;11.13;56.19;99002.00;5080233;28;20338;-73
2022/04/07 01:59:59;;;;;;;10.48;6.43;;;;;;;10.96;56.97;98995.25;5078222;28;20020;-75
2022/04/07 02:02:24;;;;;;;12.05;6.72;;;;;;;10.88;57.14;98989.03;5078708;28;20048;-75
2022/04/07 02:04:58;;;;;;;13.05;7.20;;;;;;;10.82;57.16;98994.25;5078969;28;20100;-73
2022/04/07 02:07:32;;;;;;;11.93;7.22;;;;;;;10.87;57.36;98992.69;5080064;28;20032;-73
2022/04/07 02:10:01;;;;;;;18.08;7.50;;;;;;;11.00;56.80;98978.00;5079961;28;20024;-75
2022/04/07 02:12:29;;;;;;;11.02;6.85;;;;;;;10.97;56.31;98955.34;5076015;28;20090;-73
2022/04/07 02:14:55;;;;;;;17.55;8.48;;;;;;;11.14;56.05;98974.50;5080280;28;20021;-74
2022/04/07 02:17:22;;;;;;;15.00;7.85;;;;;;;11.18;56.37;98970.47;5079956;28;20048;-74
2022/04/07 02:19:55;;;;;;;14.23;7.20;;;;;;;11.36;55.35;98973.56;5080420;28;20039;-74
2022/04/07 02:22:20;;;;;;;17.27;7.40;;;;;;;11.24;56.12;98977.69;5080490;28;20349;-74
2022/04/07 02:24:48;;;;;;;19.30;8.18;;;;;;;11.18;56.06;98987.22;5079896;28;20036;-73
2022/04/07 02:27:14;;;;;;;17.65;9.77;;;;;;;11.14;56.25;98979.81;5077541;28;20036;-78
2022/04/07 02:29:40;;;;;;;15.80;9.48;;;;;;;10.79;57.09;98961.00;5077916;28;20261;-72
2022/04/07 02:32:08;;;;;;;21.40;9.45;;;;;;;10.62;57.82;98934.88;5079543;28;20082;-73
2022/04/07 02:34:33;;;;;;;16.33;8.77;;;;;;;10.27;59.15;98921.31;5079220;28;20040;-75
2022/04/07 02:36:58;;;;;;;14.45;9.02;;;;;;;10.03;60.47;98929.44;5079731;28;20059;-73
2022/04/07 02:39:24;;;;;;;14.00;9.20;;;;;;;9.67;62.20;98924.75;5079557;28;20381;-75
2022/04/07 02:41:49;;;;;;;14.82;8.68;;;;;;;9.62;62.77;98932.41;5079977;28;20054;-73
2022/04/07 02:44:17;;;;;;;12.77;7.97;;;;;;;9.51;63.54;98928.34;5079446;28;20369;-75
2022/04/07 02:46:43;;;;;;;16.45;8.88;;;;;;;9.67;63.13;98930.06;5078953;28;20123;-74
2022/04/07 02:49:08;;;;;;;14.98;8.57;;;;;;;9.74;63.59;98930.16;5080155;28;20229;-73
2022/04/07 02:51:34;;;;;;;19.83;9.35;;;;;;;9.78;62.93;98921.72;5078811;28;20456;-73
2022/04/07 02:53:59;;;;;;;18.27;9.75;;;;;;;9.81;63.55;98928.47;5078970;28;20131;-75
2022/04/07 02:56:26;;;;;;;18.63;9.90;;;;;;;9.82;64.09;98924.81;5078811;28;20425;-74
2022/04/07 02:58:52;;;;;;;12.90;9.40;;;;;;;9.64;64.93;98914.53;5078956;28;20223;-78
2022/04/07 03:01:18;;;;;;;15.68;9.35;;;;;;;9.86;64.09;98903.13;5079871;28;20032;-78
2022/04/07 03:03:43;;;;;;;25.10;9.75;;;;;;;9.90;63.63;98890.38;5079962;28;20068;-72
2022/04/07 03:06:09;;;;;;;23.60;11.05;;;;;;;9.85;64.19;98898.03;5079515;28;20036;-74
2022/04/07 03:08:35;;;;;;;19.25;10.60;;;;;;;9.90;63.83;98908.88;5079199;28;20029;-73
2022/04/07 03:11:01;;;;;;;18.75;10.93;;;;;;;9.67;64.59;98906.25;5079928;28;20052;-74
2022/04/07 03:13:27;;;;;;;18.08;10.48;;;;;;;9.92;63.83;98905.06;5078736;28;20346;-73
2022/04/07 03:15:53;;;;;;;14.75;9.82;;;;;;;10.35;62.26;98905.34;5078327;28;20333;-73
2022/04/07 03:18:19;;;;;;;18.45;10.43;;;;;;;10.55;61.86;98910.97;5111340;28;20036;-74
2022/04/07 03:20:44;;;;;;;15.65;9.10;;;;;;;10.49;61.78;98907.22;5076140;28;20032;-75
2022/04/07 03:23:10;;;;;;;19.60;11.50;;;;;;;10.47;61.97;98897.81;5078652;28;20367;-73
2022/04/07 03:25:36;;;;;;;14.15;9.57;;;;;;;10.25;62.82;98883.63;5079505;28;20059;-74
2022/04/07 03:28:03;;;;;;;17.98;9.23;;;;;;;10.15;62.99;98864.53;5078724;28;20032;-75
2022/04/07 03:30:29;;;;;;;18.42;10.68;;;;;;;9.99;63.83;98876.09;5094541;28;20020;-72
2022/04/07 03:32:54;;;;;;;21.27;11.60;;;;;;;9.74;64.65;98877.28;5076626;28;20036;-72
2022/04/07 03:35:20;;;;;;;22.20;10.30;;;;;;;9.60;65.89;98898.22;5079698;28;20063;-74
2022/04/07 03:37:46;;;;;;;22.45;10.98;;;;;;;9.71;65.07;98886.41;5076290;28;20039;-75
2022/04/07 03:40:12;;;;;;;20.08;10.77;;;;;;;9.81;64.77;98879.06;5078967;28;20275;-74
2022/04/07 03:42:38;;;;;;;19.58;11.65;;;;;;;9.88;64.87;98898.50;5076650;28;20035;-73
2022/04/07 03:45:04;;;;;;;21.08;11.13;;;;;;;9.86;65.31;98910.25;5078282;28;20091;-73
2022/04/07 03:47:30;;;;;;;21.73;12.02;;;;;;;10.02;64.26;98904.00;5077346;28;20059;-74
2022/04/07 03:49:56;;;;;;;18.77;11.75;;;;;;;9.99;64.03;98896.41;5076085;28;20214;-73
2022/04/07 03:52:21;;;;;;;18.60;11.65;;;;;;;9.91;64.58;98876.16;5079349;28;20040;-74
2022/04/07 03:54:47;;;;;;;15.90;10.90;;;;;;;9.86;65.30;98852.91;5078441;28;20310;-72
2022/04/07 03:57:13;;;;;;;19.23;11.88;;;;;;;9.60;65.98;98849.81;5078068;28;20234;-75
2022/04/07 03:59:39;;;;;;;20.52;11.45;;;;;;;9.66;65.84;98854.38;5077236;28;20070;-74
2022/04/07 04:02:06;;;;;;;20.15;11.50;;;;;;;9.50;66.69;98860.63;5076080;28;20074;-72
2022/04/07 04:04:32;;;;;;;23.23;12.05;;;;;;;9.66;66.08;98859.69;5079073;28;20032;-73
2022/04/07 04:06:58;;;;;;;24.73;12.15;;;;;;;9.85;65.04;98839.84;5077897;28;20059;-72
2022/04/07 04:09:23;;;;;;;19.45;10.40;;;;;;;10.01;64.07;98829.13;5078070;28;20043;-75
2022/04/07 04:11:49;;;;;;;17.40;9.50;;;;;;;9.89;64.28;98812.88;5078741;28;20028;-72
2022/04/07 04:14:14;;;;;;;21.13;9.68;;;;;;;9.88;65.46;98808.59;5077746;28;20040;-75
2022/04/07 04:16:41;;;;;;;18.00;9.60;;;;;;;9.95;65.28;98827.19;5076767;28;20117;-73
2022/04/07 04:19:07;;;;;;;18.35;11.15;;;;;;;9.83;65.96;98824.16;5077908;28;20028;-73
2022/04/07 04:21:33;;;;;;;23.98;11.07;;;;;;;9.92;65.76;98827.56;5078695;28;20066;-75
2022/04/07 04:23:58;;;;;;;24.83;11.57;;;;;;;10.18;64.71;98832.41;5077677;28;20365;-75
2022/04/07 04:26:24;;;;;;;30.75;13.57;;;;;;;10.32;63.33;98828.16;5077535;28;20032;-73
2022/04/07 04:28:49;;;;;;;22.92;12.45;;;;;;;10.60;62.25;98850.34;5079017;28;20060;-78
2022/04/07 04:31:15;;;;;;;26.88;13.13;;;;;;;10.76;61.50;98852.81;5077947;28;20062;-78
2022/04/07 04:33:40;;;;;;;30.60;15.63;;;;;;;10.94;60.98;98839.16;5078601;28;20349;-73
2022/04/07 04:36:06;;;;;;;30.70;14.50;;;;;;;11.09;60.83;98829.34;5078635;28;20047;-75
2022/04/07 04:38:31;;;;;;;20.50;12.40;;;;;;;11.11;61.08;98829.97;5077834;28;20039;-75
2022/04/07 04:40:57;;;;;;;15.88;10.05;;;;;;;11.08;60.91;98843.59;5077258;28;20323;-73
2022/04/07 04:43:22;;;;;;;20.45;12.07;;;;;;;11.12;61.24;98842.22;5078805;28;20037;-75
2022/04/07 04:45:48;;;;;;;35.42;12.07;;;;;;;11.36;60.33;98841.03;5077185;28;20029;-73
2022/04/07 04:48:13;;;;;;;19.63;10.60;;;;;;;11.34;60.14;98821.84;5077339;28;20021;-73
2022/04/07 04:50:39;;;;;;;18.83;10.38;;;;;;;11.60;58.73;98831.91;5078287;28;20087;-75
2022/04/07 04:53:05;;;;;;;19.77;11.48;;;;;;;11.60;59.53;98829.25;5077578;28;20032;-75
2022/04/07 04:55:30;;;;;;;19.42;10.48;;;;;;;11.56;59.12;98817.41;5078671;28;20541;-73
2022/04/07 04:57:56;;;;;;;16.92;10.18;;;;;;;11.87;58.08;98818.91;5080373;28;20051;-73
2022/04/07 05:00:21;;;;;;;16.40;9.95;;;;;;;12.00;58.10;98819.00;5080799;28;20104;-73
2022/04/07 05:02:47;;;;;;;21.02;10.88;;;;;;;11.87;57.45;98797.69;5082250;28;20035;-79
2022/04/07 05:05:12;;;;;;;16.00;10.63;;;;;;;12.01;57.83;98839.22;5082307;28;20036;-79
2022/04/07 05:07:38;;;;;;;24.25;11.18;;;;;;;12.02;58.13;98839.00;5080841;28;20048;-74
2022/04/07 05:10:04;;;;;;;21.63;11.23;;;;;;;12.18;58.07;98839.72;5081517;28;20038;-73
2022/04/07 05:12:30;;;;;;;17.27;10.85;;;;;;;12.10;57.51;98827.44;5080982;28;20226;-75
2022/04/07 05:14:56;;;;;;;17.70;10.25;;;;;;;12.10;58.03;98833.56;5078762;28;20050;-77
2022/04/07 05:17:21;;;;;;;16.60;10.80;;;;;;;12.25;57.96;98819.34;5081660;28;20036;-77
2022/04/07 05:19:47;;;;;;;24.67;11.80;;;;;;;12.47;56.16;98805.81;5080683;28;20028;-74
2022/04/07 05:22:13;;;;;;;13.93;9.73;;;;;;;12.68;55.77;98826.16;5082304;28;20033;-74
2022/04/07 05:24:38;;;;;;;16.90;9.95;;;;;;;12.60;55.53;98823.66;5082050;28;20318;-75
2022/04/07 05:27:04;;;;;;;24.77;11.38;;;;;;;12.74;55.88;98827.19;5081811;28;20042;-75
2022/04/07 05:29:29;;;;;;;16.85;9.82;;;;;;;12.85;54.76;98817.84;5080872;28;20270;-76
2022/04/07 05:31:55;;;;;;;15.85;9.48;;;;;;;12.90;53.58;98800.28;5080935;28;20036;-77
2022/04/07 05:34:20;;;;;;;15.85;10.05;;;;;;;13.08;54.18;98808.50;5079971;28;20036;-77
2022/04/07 05:36:46;;;;;;;16.25;9.95;;;;;;;13.06;53.53;98794.59;5082038;28;20099;-74
2022/04/07 05:39:13;;;;;;;15.52;10.07;;;;;;;13.26;53.23;98797.31;5081629;28;20099;-80
2022/04/07 05:41:39;;;;;;;15.95;10.50;;;;;;;13.02;53.25;98781.91;5077787;28;20067;-77
2022/04/07 05:44:05;;;;;;;16.15;10.10;;;;;;;12.91;54.49;98772.69;5080643;28;20284;-75
2022/04/07 05:46:30;;;;;;;18.05;10.57;;;;;;;12.74;54.03;98769.56;5080811;28;20627;-77
2022/04/07 05:48:56;;;;;;;20.77;10.43;;;;;;;12.73;53.51;98744.03;5080622;28;20025;-77
2022/04/07 05:51:21;;;;;;;18.77;11.85;;;;;;;13.00;53.15;98760.84;5079474;28;20036;-75
2022/04/07 05:53:47;;;;;;;18.63;11.10;;;;;;;12.86;54.36;98759.19;5080332;28;20028;-77
2022/04/07 05:56:12;;;;;;;16.70;10.68;;;;;;;12.40;56.55;98772.28;5079064;28;20258;-77
2022/04/07 05:58:38;;;;;;;21.70;11.75;;;;;;;12.45;56.60;98775.16;5076261;28;20020;-73
2022/04/07 06:01:03;;;;;;;21.33;12.30;;;;;;;12.57;56.78;98762.97;5079869;28;20103;-76
2022/04/07 06:03:31;;;;;;;22.90;11.88;;;;;;;12.76;55.95;98732.19;5080876;28;20349;-80
2022/04/07 06:05:57;;;;;;;15.98;10.50;;;;;;;12.87;54.30;98726.28;5080382;28;20047;-75
2022/04/07 06:08:23;;;;;;;21.15;11.80;;;;;;;13.03;52.94;98725.91;5080219;28;20040;-75
2022/04/07 06:10:48;;;;;;;24.02;11.50;;;;;;;12.43;52.97;98710.81;5079979;28;20039;-77
2022/04/07 06:13:17;;;;;;;18.58;11.52;;;;;;;12.07;56.14;98727.81;5078985;28;20230;-77
2022/04/07 06:15:42;;;;;;;20.45;11.05;;;;;;;11.57;56.89;98722.78;5079777;28;20029;-75
2022/04/07 06:18:08;;;;;;;26.08;14.00;;;;;;;11.57;56.82;98706.88;5079174;28;20099;-75
2022/04/07 06:20:34;;;;;;;21.67;12.38;;;;;;;11.75;55.77;98733.72;5079492;28;20610;-76
2022/04/07 06:23:02;;;;;;;23.20;12.30;;;;;;;11.71;56.16;98722.66;5077450;28;20038;-74
2022/04/07 06:25:27;;;;;;;20.73;12.10;;;;;;;11.60;56.96;98738.28;5078475;28;20253;-75
2022/04/07 06:27:53;;;;;;;32.38;17.13;;;;;;;11.57;56.10;98730.72;5079503;28;20028;-72
2022/04/07 06:30:20;;;;;;;23.13;13.70;;;;;;;11.80;55.30;98720.72;5078612;28;20051;-73
2022/04/07 06:32:47;;;;;;;22.70;13.68;;;;;;;11.99;56.54;98725.31;5079340;28;20040;-74
2022/04/07 06:35:15;;;;;;;26.38;16.13;;;;;;;11.72;55.63;98711.03;5078782;28;20298;-73
2022/04/07 06:37:52;;;;;;;26.27;14.80;;;;;;;11.51;55.49;98722.53;5079105;28;20040;-73
2022/04/07 06:40:20;;;;;;;24.05;13.98;;;;;;;11.29;56.50;98714.78;5077755;28;20094;-73
2022/04/07 06:42:49;;;;;;;23.20;11.48;;;;;;;11.16;57.65;98718.13;5077125;28;20319;-74
2022/04/07 06:45:15;;;;;;;26.40;12.60;;;;;;;11.31;57.60;98697.69;5078505;28;20039;-78
2022/04/07 06:47:42;;;;;;;31.40;14.52;;;;;;;11.07;57.65;98687.50;5076715;28;20113;-74
2022/04/07 06:50:13;;;;;;;25.02;13.93;;;;;;;11.08;57.85;98689.94;5079287;28;20099;-79
2022/04/07 06:52:40;;;;;;;25.77;13.60;;;;;;;11.20;57.65;98698.19;5078165;28;20306;-74
2022/04/07 06:55:07;;;;;;;22.05;13.10;;;;;;;11.57;57.58;98699.72;5077988;28;20028;-74
2022/04/07 06:57:52;;;;;;;22.42;12.73;;;;;;;11.99;55.29;98685.53;5079632;28;20033;-78
2022/04/07 07:00:19;;;;;;;24.88;12.95;;;;;;;12.29;53.26;98682.59;5079125;28;20230;-78
2022/04/07 07:02:51;;;;;;;19.02;11.48;;;;;;;12.42;54.72;98683.44;5077746;28;20387;-74
2022/04/07 07:05:18;;;;;;;26.10;12.70;;;;;;;12.42;54.03;98672.81;5079472;28;20066;-74
2022/04/07 07:07:44;;;;;;;20.65;12.15;;;;;;;12.34;53.36;98661.56;5082263;28;20103;-74
2022/04/07 07:10:10;;;;;;;21.92;12.27;;;;;;;12.41;54.20;98644.63;5082014;28;20082;-74
2022/04/07 07:12:35;;;;;;;23.60;13.23;;;;;;;12.31;53.58;98665.44;5081679;28;20032;-74
2022/04/07 07:15:01;;;;;;;27.73;12.50;;;;;;;12.18;53.81;98622.13;5081993;28;20035;-80
2022/04/07 07:17:33;;;;;;;26.15;12.65;;;;;;;12.06;54.25;98648.41;5081900;28;20024;-78
2022/04/07 07:20:04;;;;;;;22.35;12.52;;;;;;;11.95;55.32;98639.19;5079216;28;20086;-76
2022/04/07 07:22:31;;;;;;;25.15;13.18;;;;;;;12.15;55.29;98642.72;5081905;28;20055;-73
2022/04/07 07:24:57;;;;;;;21.65;12.35;;;;;;;12.40;54.54;98643.00;5081771;28;20031;-78
2022/04/07 07:27:22;;;;;;;25.70;13.27;;;;;;;12.43;54.02;98639.13;5081378;28;20072;-75
2022/04/07 07:29:48;;;;;;;23.77;12.85;;;;;;;12.46;53.43;98617.50;5081747;28;20035;-74
2022/04/07 07:32:13;;;;;;;25.58;12.48;;;;;;;12.61;52.59;98626.13;5081848;28;20097;-74
2022/04/07 07:34:39;;;;;;;22.45;12.48;;;;;;;12.57;53.73;98629.38;5079753;28;20016;-76
2022/04/07 07:37:05;;;;;;;27.55;12.88;;;;;;;12.44;52.66;98636.28;5081895;28;20101;-74
2022/04/07 07:39:30;;;;;;;23.02;12.98;;;;;;;12.43;54.18;98624.03;5081583;28;20029;-75
2022/04/07 07:41:56;;;;;;;21.17;12.77;;;;;;;12.62;52.08;98614.47;5081347;28;20035;-76
2022/04/07 07:44:21;;;;;;;25.30;13.20;;;;;;;12.59;54.29;98614.06;5080433;28;20062;-74
2022/04/07 07:46:47;;;;;;;25.63;13.35;;;;;;;12.75;53.25;98611.84;5081358;28;20036;-73
2022/04/07 07:49:13;;;;;;;26.05;13.55;;;;;;;12.50;53.31;98594.84;5081142;28;20051;-74
2022/04/07 07:51:38;;;;;;;23.90;13.30;;;;;;;13.12;51.70;98612.25;5081306;28;20115;-73
2022/04/07 07:54:05;;;;;;;21.80;14.15;;;;;;;13.27;51.56;98612.06;5081190;28;20046;-74
2022/04/07 07:56:30;;;;;;;25.45;13.25;;;;;;;13.35;51.39;98604.69;5080938;28;20211;-78
2022/04/07 07:58:56;;;;;;;29.23;13.07;;;;;;;13.22;49.86;98603.88;5081481;28;20099;-73
2022/04/07 08:01:21;;;;;;;24.95;13.27;;;;;;;13.41;51.11;98609.16;5080117;28;20029;-74
2022/04/07 08:03:47;;;;;;;25.17;14.00;;;;;;;13.25;50.73;98598.97;5081585;28;20039;-75
2022/04/07 08:06:13;;;;;;;29.20;14.10;;;;;;;13.46;50.50;98592.59;5075255;28;20095;-73
2022/04/07 08:08:39;;;;;;;29.17;14.38;;;;;;;13.64;51.32;98603.41;5076345;28;20420;-77
2022/04/07 08:11:05;;;;;;;30.73;13.50;;;;;;;13.59;50.24;98605.06;5075787;28;20021;-73
2022/04/07 08:13:30;;;;;;;28.67;15.48;;;;;;;13.66;51.90;98592.56;5077026;28;20041;-75
2022/04/07 08:15:56;;;;;;;27.10;14.73;;;;;;;13.99;49.84;98581.78;5075644;28;20063;-74
2022/04/07 08:18:23;;;;;;;30.45;15.95;;;;;;;13.90;48.72;98546.63;5076632;28;20044;-75
2022/04/07 08:20:49;;;;;;;27.85;14.02;;;;;;;14.36;48.46;98562.31;5076742;28;20036;-75
2022/04/07 08:23:15;;;;;;;24.95;13.15;;;;;;;14.72;47.31;98568.88;5074425;28;20207;-75
2022/04/07 08:25:41;;;;;;;24.00;13.38;;;;;;;15.05;46.16;98554.44;5076544;28;20074;-74
2022/04/07 08:28:06;;;;;;;23.55;12.48;;;;;;;15.22;45.91;98571.50;5075375;28;20094;-74
2022/04/07 08:30:34;;;;;;;35.72;15.02;;;;;;;14.94;46.75;98569.31;5076670;28;20039;-75
2022/04/07 08:33:00;;;;;;;24.13;14.10;;;;;;;14.72;46.50;98571.53;5078598;28;20024;-74
2022/04/07 08:35:26;;;;;;;23.95;13.93;;;;;;;14.74;46.17;98566.00;5079399;28;20056;-73
2022/04/07 08:37:52;;;;;;;21.95;14.00;;;;;;;15.17;44.77;98548.16;5080536;28;20108;-74
2022/04/07 08:40:21;;;;;;;24.17;14.35;;;;;;;15.42;44.69;98542.78;5079481;28;20092;-74
2022/04/07 08:42:47;;;;;;;26.90;14.00;;;;;;;15.95;43.61;98532.31;5078676;28;20036;-76
2022/04/07 08:45:13;;;;;;;24.08;13.75;;;;;;;16.16;43.39;98536.34;5080005;28;20400;-74
2022/04/07 08:47:40;;;;;;;21.33;12.50;;;;;;;15.94;42.06;98524.53;5080117;28;20041;-74
2022/04/07 08:50:06;;;;;;;21.73;13.20;;;;;;;16.06;43.14;98512.06;5084869;28;20037;-75
2022/04/07 08:52:33;;;;;;;23.55;13.77;;;;;;;15.64;43.84;98487.97;5084727;28;20032;-74
2022/04/07 08:54:59;;;;;;;22.48;13.23;;;;;;;15.41;44.35;98505.66;5083189;28;20019;-74
2022/04/07 08:57:26;;;;;;;26.85;13.88;;;;;;;15.10;44.07;98488.78;5084653;28;20048;-74
2022/04/07 08:59:52;;;;;;;25.98;11.95;;;;;;;15.18;44.54;98472.47;5083163;28;20027;-75
2022/04/07 09:02:17;;;;;;;21.05;11.65;;;;;;;14.88;44.09;98468.91;5084475;28;20036;-73
2022/04/07 09:04:44;;;;;;;20.90;12.30;;;;;;;14.88;44.87;98468.91;5084328;28;20100;-75
2022/04/07 09:07:12;;;;;;;23.23;12.18;;;;;;;14.79;46.23;98459.56;5084048;28;20048;-74
2022/04/07 09:09:37;;;;;;;20.85;12.73;;;;;;;14.69;46.68;98449.41;5084219;28;20043;-74
2022/04/07 09:12:04;;;;;;;24.30;13.07;;;;;;;14.81;46.06;98425.53;5084431;28;20025;-73
2022/04/07 09:14:34;;;;;;;25.27;12.30;;;;;;;14.68;45.62;98405.16;5084069;28;20078;-74
2022/04/07 09:17:00;;;;;;;18.15;11.07;;;;;;;14.72;44.52;98405.53;5084101;28;20039;-74
2022/04/07 09:19:28;;;;;;;26.00;11.70;;;;;;;14.62;45.98;98406.84;5084286;28;20041;-73
2022/04/07 09:22:08;;;;;;;21.98;11.27;;;;;;;14.56;45.64;98406.91;5083945;28;20025;-74
2022/04/07 09:24:35;;;;;;;20.42;11.68;;;;;;;14.54;45.38;98406.31;5084161;28;20032;-74
2022/04/07 09:27:03;;;;;;;21.80;12.02;;;;;;;14.55;45.95;98403.41;5084064;28;20040;-75
2022/04/07 09:29:46;;;;;;;23.27;12.32;;;;;;;14.54;46.32;98385.00;5083851;28;20028;-73
2022/04/07 09:32:26;;;;;;;27.38;13.85;;;;;;;14.52;47.10;98381.72;5083296;28;20310;-75
2022/04/07 09:34:59;;;;;;;22.30;12.18;;;;;;;14.32;46.97;98371.25;5083982;28;20036;-74
2022/04/07 09:37:28;;;;;;;25.13;12.23;;;;;;;14.55;46.83;98375.97;5083784;28;20226;-76
2022/04/07 09:40:07;;;;;;;26.63;11.88;;;;;;;14.49;45.34;98388.31;5083852;28;20039;-73
2022/04/07 09:42:34;;;;;;;21.55;11.25;;;;;;;14.58;45.43;98378.22;5083444;28;20056;-76
2022/04/07 09:45:01;;;;;;;22.60;11.00;;;;;;;14.84;44.51;98372.59;5081540;28;20226;-74
2022/04/07 09:47:37;;;;;;;19.45;10.32;;;;;;;14.98;45.28;98383.91;5083698;28;20136;-75
2022/04/07 09:50:04;;;;;;;21.70;11.90;;;;;;;14.83;46.40;98394.13;5082468;28;20060;-73
2022/04/07 09:52:30;;;;;;;32.45;12.32;;;;;;;15.15;46.07;98395.59;5082638;28;20025;-74
2022/04/07 09:55:02;;;;;;;29.55;12.13;;;;;;;15.31;45.82;98394.16;5083199;28;20344;-73
2022/04/07 09:57:28;;;;;;;21.42;12.13;;;;;;;15.39;45.25;98409.84;5081823;28;20196;-76
2022/04/07 09:59:55;;;;;;;26.75;13.55;;;;;;;15.60;45.23;98408.59;5082883;28;20146;-75
2022/04/07 10:02:21;;;;;;;22.48;12.50;;;;;;;15.67;45.73;98398.66;5080794;28;20052;-74
2022/04/07 10:04:47;;;;;;;22.08;12.10;;;;;;;15.65;46.46;98384.72;5083344;28;20028;-74
2022/04/07 10:07:13;;;;;;;19.48;11.60;;;;;;;15.80;46.18;98390.47;5083258;28;20032;-73
2022/04/07 10:09:46;;;;;;;19.33;11.90;;;;;;;15.94;45.62;98375.88;5083102;28;20311;-73
2022/04/07 10:12:11;;;;;;;20.15;11.85;;;;;;;15.83;45.98;98370.50;5080827;28;20044;-74
2022/04/07 10:14:38;;;;;;;27.42;12.48;;;;;;;15.87;45.39;98348.47;5079061;28;20024;-74
2022/04/07 10:17:05;;;;;;;18.90;11.40;;;;;;;15.79;45.28;98338.13;5079416;28;20373;-74
2022/04/07 10:19:39;;;;;;;22.65;11.98;;;;;;;16.01;44.95;98330.38;5079126;28;20047;-72
2022/04/07 10:22:13;;;;;;;24.52;12.50;;;;;;;16.42;43.59;98321.41;5078124;28;20156;-75
2022/04/07 10:24:53;;;;;;;23.90;12.02;;;;;;;16.43;43.41;98311.53;5078841;28;20028;-76
2022/04/07 10:27:25;;;;;;;19.35;11.77;;;;;;;16.39;43.27;98300.50;5079241;28;20040;-74
2022/04/07 10:30:15;;;;;;;21.10;11.82;;;;;;;16.45;43.22;98288.06;5079192;28;20044;-74
2022/04/07 10:32:54;;;;;;;20.50;11.50;;;;;;;16.56;42.93;98282.72;5080518;28;20391;-74
2022/04/07 10:35:35;;;;;;;22.20;12.80;;;;;;;16.75;42.21;98287.94;5081151;28;20032;-75
2022/04/07 10:38:04;;;;;;;25.35;13.07;;;;;;;16.47;42.48;98276.09;5081339;28;20032;-74
2022/04/07 10:40:37;;;;;;;20.20;11.80;;;;;;;16.65;42.26;98277.03;5081209;28;20273;-76
2022/04/07 10:43:14;;;;;;;17.48;10.48;;;;;;;16.84;42.36;98275.84;5079812;28;20055;-75
2022/04/07 10:45:45;;;;;;;28.85;12.07;;;;;;;16.81;42.44;98287.00;5078217;28;20265;-75
2022/04/07 10:48:32;;;;;;;21.52;12.15;;;;;;;17.02;42.03;98283.66;5079334;28;20040;-74
2022/04/07 10:51:09;;;;;;;20.73;11.48;;;;;;;16.96;42.45;98294.50;5077296;28;20289;-74
2022/04/07 10:54:02;;;;;;;23.20;12.63;;;;;;;17.18;42.22;98314.19;5079298;28;20330;-74
2022/04/07 10:56:34;;;;;;;21.85;12.27;;;;;;;17.17;42.00;98320.59;5077998;28;20276;-75
2022/04/07 10:59:34;;;;;;;17.27;11.70;;;;;;;17.02;41.89;98314.94;5078189;28;20032;-74
2022/04/07 11:02:04;;;;;;;24.20;12.07;;;;;;;17.05;41.62;98336.69;5076333;28;20326;-74
2022/04/07 11:04:37;;;;;;;22.27;12.15;;;;;;;17.13;41.97;98335.47;5075921;28;20027;-74
2022/04/07 11:07:09;;;;;;;24.13;12.38;;;;;;;17.11;42.16;98338.41;5077793;28;20050;-74
2022/04/07 11:09:58;;;;;;;26.38;12.63;;;;;;;17.24;41.37;98321.25;5077480;28;20047;-75
2022/04/07 11:12:37;;;;;;;18.13;11.15;;;;;;;17.30;40.98;98306.09;5076419;28;20033;-74
2022/04/07 11:15:03;;;;;;;21.52;11.48;;;;;;;17.60;40.89;98289.75;5076804;28;20024;-75
2022/04/07 11:17:47;;;;;;;23.70;11.45;;;;;;;17.76;40.18;98276.44;5078882;28;20012;-74
2022/04/07 11:20:26;;;;;;;26.63;11.57;;;;;;;17.72;39.33;98278.00;5078121;28;20042;-75
2022/04/07 11:23:08;;;;;;;21.60;11.68;;;;;;;17.77;39.03;98287.97;5077677;28;20056;-74
2022/04/07 11:25:38;;;;;;;20.98;12.27;;;;;;;17.89;40.17;98282.53;5077743;28;20203;-73